Accueil
METAR-TAF:

METAR-TAF

Aéroports :

Tunis, Tunisie

Aéroport international de Tunis-Carthage

latitude: 36-50N, longitude: 010-14E, altitude: 3 m

Observation

Le bulletin a été fait il y a 36 minutes, à 22:00 UTC
Vent 7 kt de est/sud-est, variant entre est et sud/sud-est
Température 21°C
Humidité 60%
Pression 1016 hPa
Visibilité 10 km ou plus
Quelques nuages à une hauteur de 2600 ft

METAR: DTTA 242200Z 12007KT 090V160 9999 FEW026 21/13 Q1016 NOSIG

Heure: 23:36 (22:36 UTC)

Prévision

Le bulletin a été fait il y a 4 heures et 57 minutes, à 17:39 UTC
Prévision valable du 24 à 18 UTC au 25 à 18 UTC
Vent 13 kt de sud/sud-est
Visibilité 10 km ou plus
Quelques nuages à une hauteur de 2600 ft

TAF: DTTA 241739Z 2418/2518 16013KT 9999 FEW026

Observations et prévisions météorologiques de plus de 4000 aéroports (messages METAR et TAF).

Les stations disponibles sont représentées par des disques jaunes et rouges sur la carte.

Passer la souris dessus pour voir le nom de la station.

Cliquer dessus pour voir les observations et prévisions météorologiques.

Pour changer de carte: cliquez sur les boutons verts avec une croix noire pour zoomer, sur le bouton vert avec un tiret pour effectuer un zoom arrière, ou sur les flèches vertes pour les cartes adjacentes.


METAR-TAF: